Time;durP1;ratioP1;P1;durP2;ratioP2;P2;SDS_P1;SDS_P2;PMS_P1;PMS_P2;Temp;Humidity;BMP_temperature;BMP_pressure;BME280_temperature;BME280_humidity;BME280_pressure;Samples;Min_cycle;Max_cycle;Signal;HPM_P1;HPM_P2
2021/10/06 00:00:47;;;;;;;3.77;0.90;;;12.40;99.90;;;;;;5074541;28;20213;-63
2021/10/06 00:03:13;;;;;;;3.00;0.70;;;12.40;99.90;;;;;;5074538;28;20212;-63
2021/10/06 00:05:41;;;;;;;3.60;1.20;;;12.40;99.90;;;;;;5073964;28;20205;-63
2021/10/06 00:08:10;;;;;;;2.43;1.00;;;12.50;99.90;;;;;;5074625;28;20233;-63
2021/10/06 00:10:37;;;;;;;4.50;0.77;;;12.60;99.90;;;;;;5074434;28;20205;-63
2021/10/06 00:13:03;;;;;;;2.70;0.80;;;12.70;99.90;;;;;;5074379;28;20209;-63
2021/10/06 00:15:30;;;;;;;2.37;0.80;;;12.70;99.90;;;;;;5074293;28;20605;-63
2021/10/06 00:17:57;;;;;;;1.90;0.67;;;12.70;99.90;;;;;;5074011;28;20252;-63
2021/10/06 00:20:23;;;;;;;5.77;0.90;;;12.70;99.90;;;;;;5074388;28;20209;-63
2021/10/06 00:22:51;;;;;;;3.27;1.07;;;12.70;99.90;;;;;;5074299;28;20263;-63
2021/10/06 00:25:18;;;;;;;3.40;0.90;;;12.80;99.90;;;;;;5073892;28;20726;-63
2021/10/06 00:27:45;;;;;;;4.07;0.97;;;12.90;99.90;;;;;;5097442;22;20641;-63
2021/10/06 00:30:12;;;;;;;4.10;1.00;;;13.00;99.90;;;;;;5073996;28;20266;-63
2021/10/06 00:32:39;;;;;;;3.00;1.17;;;13.10;99.90;;;;;;5073675;28;20211;-63
2021/10/06 00:35:06;;;;;;;2.87;0.90;;;13.20;99.90;;;;;;5072984;28;20228;-63
2021/10/06 00:37:33;;;;;;;2.43;1.07;;;13.20;99.90;;;;;;5073815;28;20259;-63
2021/10/06 00:40:01;;;;;;;2.37;0.87;;;13.30;99.90;;;;;;5073896;28;20209;-63
2021/10/06 00:42:28;;;;;;;3.33;0.97;;;13.40;99.90;;;;;;5073294;28;20679;-63
2021/10/06 00:44:55;;;;;;;1.77;0.97;;;13.50;99.90;;;;;;5073366;28;20212;-63
2021/10/06 00:47:21;;;;;;;2.73;0.90;;;13.60;99.90;;;;;;5073086;28;20232;-62
2021/10/06 00:49:48;;;;;;;2.33;0.80;;;13.70;99.90;;;;;;5073175;28;20700;-63
2021/10/06 00:52:15;;;;;;;1.87;0.90;;;13.80;99.90;;;;;;5073057;28;20711;-63
2021/10/06 00:54:43;;;;;;;3.57;1.20;;;13.80;99.90;;;;;;5073116;28;20229;-63
2021/10/06 00:57:12;;;;;;;2.97;0.90;;;13.70;99.90;;;;;;5073187;28;20708;-65
2021/10/06 00:59:39;;;;;;;1.47;0.87;;;13.60;99.90;;;;;;5072910;28;20209;-66
2021/10/06 01:02:05;;;;;;;2.73;0.70;;;13.60;99.90;;;;;;5073205;28;20224;-64
2021/10/06 01:04:33;;;;;;;3.23;1.00;;;13.50;99.90;;;;;;5073092;28;20208;-62
2021/10/06 01:07:00;;;;;;;1.47;0.80;;;13.40;99.90;;;;;;5073047;28;20205;-61
2021/10/06 01:09:28;;;;;;;3.40;0.80;;;13.40;99.90;;;;;;5073572;28;20274;-61
2021/10/06 01:11:56;;;;;;;2.97;0.67;;;13.30;99.90;;;;;;5073482;28;20703;-62
2021/10/06 01:14:25;;;;;;;1.60;0.70;;;13.10;99.90;;;;;;5073220;28;20224;-61
2021/10/06 01:16:53;;;;;;;3.73;0.83;;;13.00;99.90;;;;;;5072997;28;20212;-62
2021/10/06 01:19:23;;;;;;;3.47;0.80;;;12.90;99.90;;;;;;5072724;28;20691;-62
2021/10/06 01:21:53;;;;;;;4.67;1.07;;;12.80;99.90;;;;;;5073431;28;20216;-62
2021/10/06 01:24:20;;;;;;;1.87;0.80;;;12.70;99.90;;;;;;5072847;28;20205;-61
2021/10/06 01:26:47;;;;;;;2.30;0.63;;;12.60;99.90;;;;;;5072913;28;20205;-61
2021/10/06 01:29:15;;;;;;;2.67;0.80;;;12.50;99.90;;;;;;5073008;28;20213;-61
2021/10/06 01:31:42;;;;;;;2.87;0.67;;;12.40;99.90;;;;;;5073164;28;20240;-62
2021/10/06 01:34:10;;;;;;;3.47;0.80;;;12.30;99.90;;;;;;5072535;28;20307;-61
2021/10/06 01:36:38;;;;;;;2.40;0.87;;;12.30;99.90;;;;;;5072648;28;20296;-61
2021/10/06 01:39:08;;;;;;;1.57;0.70;;;12.20;99.90;;;;;;5072649;28;20256;-61
2021/10/06 01:41:35;;;;;;;2.47;0.70;;;12.20;99.90;;;;;;5072670;28;20259;-61
2021/10/06 01:44:02;;;;;;;2.93;0.90;;;12.20;99.90;;;;;;5072344;28;20205;-62
2021/10/06 01:46:30;;;;;;;4.50;0.80;;;12.20;99.90;;;;;;5071414;28;20212;-62
2021/10/06 01:48:57;;;;;;;2.27;0.83;;;12.20;99.90;;;;;;5072109;28;20236;-62
2021/10/06 01:51:25;;;;;;;3.07;0.90;;;12.20;99.90;;;;;;5072070;28;20205;-62
2021/10/06 01:53:51;;;;;;;2.87;1.20;;;12.10;99.90;;;;;;5071924;28;20209;-62
2021/10/06 01:56:19;;;;;;;2.50;0.70;;;12.00;99.90;;;;;;5071955;28;20300;-61
2021/10/06 01:58:47;;;;;;;1.63;0.80;;;12.10;99.90;;;;;;5071643;28;20225;-61
2021/10/06 02:01:14;;;;;;;2.27;1.00;;;12.10;99.90;;;;;;5072203;28;20208;-62
2021/10/06 02:03:41;;;;;;;1.70;0.77;;;12.30;99.90;;;;;;5071968;28;20208;-62
2021/10/06 02:06:07;;;;;;;5.13;1.07;;;12.40;99.90;;;;;;5072041;28;20205;-62
2021/10/06 02:08:34;;;;;;;1.80;0.80;;;12.50;99.90;;;;;;5071704;28;20712;-62
2021/10/06 02:11:01;;;;;;;2.43;0.60;;;12.50;99.90;;;;;;5071957;28;20209;-62
2021/10/06 02:13:29;;;;;;;1.57;0.70;;;12.60;99.90;;;;;;5072080;28;20494;-62
2021/10/06 02:15:56;;;;;;;1.40;0.80;;;12.70;99.90;;;;;;5072041;28;20454;-62
2021/10/06 02:18:24;;;;;;;3.07;0.77;;;12.80;99.90;;;;;;5071595;28;20233;-62
2021/10/06 02:20:51;;;;;;;2.90;0.90;;;12.90;99.90;;;;;;5071618;28;20212;-61
2021/10/06 02:23:17;;;;;;;1.80;1.00;;;12.80;99.90;;;;;;5071439;28;20216;-62
2021/10/06 02:25:44;;;;;;;3.27;0.97;;;12.70;99.90;;;;;;5071611;28;20224;-61
2021/10/06 02:28:11;;;;;;;2.27;0.80;;;12.60;99.90;;;;;;5071420;28;20232;-61
2021/10/06 02:30:39;;;;;;;1.87;1.00;;;12.60;99.90;;;;;;5071206;28;20622;-62
2021/10/06 02:33:06;;;;;;;3.03;0.80;;;12.50;99.90;;;;;;5071565;28;20213;-62
2021/10/06 02:35:33;;;;;;;3.93;0.80;;;12.60;99.90;;;;;;5070940;28;20232;-62
2021/10/06 02:38:00;;;;;;;3.77;1.00;;;12.60;99.90;;;;;;5071356;28;20229;-62
2021/10/06 02:40:26;;;;;;;2.30;0.80;;;12.50;99.90;;;;;;5071358;28;20213;-62
2021/10/06 02:42:53;;;;;;;1.57;0.80;;;12.50;99.90;;;;;;5071444;28;20205;-62
2021/10/06 02:45:21;;;;;;;2.23;0.80;;;12.40;99.90;;;;;;5071121;28;20256;-62
2021/10/06 02:47:49;;;;;;;2.10;0.80;;;12.40;99.90;;;;;;5071015;28;20236;-63
2021/10/06 02:50:18;;;;;;;3.60;0.80;;;12.40;99.90;;;;;;5071223;28;20212;-63
2021/10/06 02:52:45;;;;;;;3.97;0.90;;;12.40;99.90;;;;;;5071577;28;20211;-63
2021/10/06 02:55:12;;;;;;;2.03;0.80;;;12.50;99.90;;;;;;5071245;28;20225;-61
2021/10/06 02:57:39;;;;;;;5.40;3.10;;;12.60;99.90;;;;;;5070818;28;20526;-62
2021/10/06 03:00:08;;;;;;;3.93;0.87;;;12.70;99.90;;;;;;5071154;28;20213;-63
2021/10/06 03:02:34;;;;;;;7.00;0.93;;;12.80;99.90;;;;;;5053377;28;20205;-63
2021/10/06 03:05:04;;;;;;;5.40;1.57;;;12.90;99.90;;;;;;5070521;28;20208;-62
2021/10/06 03:07:30;;;;;;;2.17;0.93;;;13.10;99.90;;;;;;5070784;28;20221;-62
2021/10/06 03:09:57;;;;;;;2.23;1.13;;;13.20;99.90;;;;;;5071011;28;20212;-62
2021/10/06 03:12:24;;;;;;;4.07;1.40;;;13.20;99.90;;;;;;5070937;28;20668;-62
2021/10/06 03:14:50;;;;;;;4.33;1.60;;;13.20;99.90;;;;;;5070587;28;20221;-62
2021/10/06 03:17:17;;;;;;;3.90;1.00;;;13.20;99.90;;;;;;5070615;28;20258;-62
2021/10/06 03:19:44;;;;;;;2.03;0.80;;;13.10;99.90;;;;;;5070535;28;20579;-62
2021/10/06 03:22:12;;;;;;;21.97;18.23;;;13.10;99.90;;;;;;5070981;28;20637;-63
2021/10/06 03:24:39;;;;;;;4.10;2.37;;;13.10;99.90;;;;;;5070785;28;20205;-62
2021/10/06 03:27:06;;;;;;;4.13;1.17;;;13.20;99.90;;;;;;5070547;28;20241;-62
2021/10/06 03:29:32;;;;;;;2.93;1.23;;;13.20;99.90;;;;;;5070501;28;20672;-62
2021/10/06 03:32:00;;;;;;;6.80;3.73;;;13.20;99.90;;;;;;5070681;28;20205;-62
2021/10/06 03:34:26;;;;;;;3.80;1.43;;;13.30;99.90;;;;;;5070742;28;20235;-62
2021/10/06 03:36:53;;;;;;;2.27;1.07;;;13.30;99.90;;;;;;5070910;28;20216;-61
2021/10/06 03:39:21;;;;;;;4.13;1.10;;;13.20;99.90;;;;;;5070491;28;20205;-61
2021/10/06 03:41:48;;;;;;;3.60;0.90;;;13.20;99.90;;;;;;5070530;28;20209;-61
2021/10/06 03:44:15;;;;;;;2.63;1.60;;;13.30;99.90;;;;;;5070595;28;20205;-61
2021/10/06 03:46:41;;;;;;;4.00;1.30;;;13.30;99.90;;;;;;5070417;28;20208;-61
2021/10/06 03:49:08;;;;;;;2.50;1.07;;;13.30;99.90;;;;;;5070714;28;20209;-61
2021/10/06 03:51:35;;;;;;;1.97;0.87;;;13.30;99.90;;;;;;5070588;28;20209;-62
2021/10/06 03:54:01;;;;;;;2.60;1.20;;;13.30;99.90;;;;;;5070482;28;20274;-62
2021/10/06 03:56:29;;;;;;;8.10;2.00;;;13.30;99.90;;;;;;5070791;28;20692;-62
2021/10/06 03:58:56;;;;;;;2.77;1.40;;;13.30;99.90;;;;;;5070254;28;20620;-62
2021/10/06 04:01:23;;;;;;;2.23;1.00;;;13.30;99.90;;;;;;5070563;28;20205;-62
2021/10/06 04:03:49;;;;;;;0.93;0.60;;;13.40;99.90;;;;;;5070186;28;20677;-62
2021/10/06 04:06:16;;;;;;;3.70;2.03;;;13.30;99.90;;;;;;5070493;28;20232;-63
2021/10/06 04:08:43;;;;;;;3.03;0.80;;;13.30;99.90;;;;;;5070182;28;20228;-62
2021/10/06 04:11:10;;;;;;;4.73;2.50;;;13.20;99.90;;;;;;5073652;28;20208;-63
2021/10/06 04:13:38;;;;;;;2.77;1.80;;;13.20;99.90;;;;;;5073765;28;20534;-62
2021/10/06 04:16:05;;;;;;;5.50;3.00;;;13.10;99.90;;;;;;5073917;28;20284;-62
2021/10/06 04:18:32;;;;;;;4.33;2.73;;;13.10;99.90;;;;;;5074026;28;20228;-64
2021/10/06 04:21:01;;;;;;;2.37;0.90;;;13.10;99.90;;;;;;5073925;28;20234;-63
2021/10/06 04:23:28;;;;;;;4.53;2.17;;;13.10;99.90;;;;;;5073572;28;20216;-62
2021/10/06 04:25:55;;;;;;;1.17;0.90;;;13.10;99.90;;;;;;5074168;28;20227;-62
2021/10/06 04:28:21;;;;;;;2.60;1.60;;;13.00;99.90;;;;;;5073602;28;20278;-64
2021/10/06 04:30:50;;;;;;;5.93;1.70;;;13.10;99.90;;;;;;5073880;28;20201;-63
2021/10/06 04:33:16;;;;;;;4.13;1.20;;;13.10;99.90;;;;;;5074215;28;20208;-63
2021/10/06 04:35:43;;;;;;;1.93;0.70;;;13.20;99.90;;;;;;5073516;28;20221;-62
2021/10/06 04:38:10;;;;;;;2.57;1.03;;;13.30;99.90;;;;;;5073662;28;20225;-64
2021/10/06 04:40:36;;;;;;;2.77;0.90;;;13.40;99.90;;;;;;5073806;28;20212;-63
2021/10/06 04:43:09;;;;;;;1.87;0.90;;;13.40;99.90;;;;;;5073292;28;20213;-63
2021/10/06 04:45:35;;;;;;;1.60;0.77;;;13.50;99.90;;;;;;5073813;28;20603;-64
2021/10/06 04:48:04;;;;;;;2.53;1.10;;;13.40;99.90;;;;;;5073598;28;20229;-64
2021/10/06 04:50:30;;;;;;;1.23;0.67;;;13.40;99.90;;;;;;5073739;28;20628;-64
2021/10/06 04:52:57;;;;;;;1.80;0.87;;;13.40;99.90;;;;;;5073749;28;20215;-63
2021/10/06 04:55:24;;;;;;;1.67;1.07;;;13.40;99.90;;;;;;5073374;28;20225;-62
2021/10/06 04:57:50;;;;;;;1.80;0.97;;;13.40;99.90;;;;;;5073339;28;20735;-62
2021/10/06 05:00:17;;;;;;;1.90;0.60;;;13.30;99.90;;;;;;5073535;28;20208;-63
2021/10/06 05:02:44;;;;;;;2.50;0.70;;;13.40;99.90;;;;;;5073070;28;20205;-63
2021/10/06 05:05:12;;;;;;;1.73;0.70;;;13.40;99.90;;;;;;5073278;28;20201;-64
2021/10/06 05:07:38;;;;;;;2.10;0.70;;;13.40;99.90;;;;;;5073345;28;20255;-63
2021/10/06 05:10:06;;;;;;;2.70;1.10;;;13.40;99.90;;;;;;5073031;28;20209;-63
2021/10/06 05:12:33;;;;;;;1.37;0.90;;;13.50;99.90;;;;;;5073316;28;20220;-63
2021/10/06 05:15:00;;;;;;;1.10;0.70;;;13.50;99.90;;;;;;5073924;28;20232;-63
2021/10/06 05:17:26;;;;;;;2.73;1.33;;;13.50;99.90;;;;;;5073493;28;20229;-63
2021/10/06 05:19:53;;;;;;;1.10;0.60;;;13.30;99.90;;;;;;5073611;28;20232;-64
2021/10/06 05:22:21;;;;;;;2.27;0.90;;;13.30;99.90;;;;;;5072679;28;20295;-64
2021/10/06 05:24:48;;;;;;;2.30;0.77;;;13.20;99.90;;;;;;5072855;28;20556;-63
2021/10/06 05:27:14;;;;;;;2.83;0.80;;;13.10;99.90;;;;;;5072717;28;20251;-63
2021/10/06 05:29:41;;;;;;;1.87;0.80;;;13.10;99.90;;;;;;5072304;28;20297;-63
2021/10/06 05:32:08;;;;;;;6.77;0.90;;;13.10;99.90;;;;;;5072680;28;20205;-66
2021/10/06 05:34:35;;;;;;;0.90;0.60;;;13.20;99.90;;;;;;5072828;28;20618;-64
2021/10/06 05:37:01;;;;;;;2.07;0.80;;;13.20;99.90;;;;;;5072260;28;20735;-64
2021/10/06 05:39:29;;;;;;;1.93;0.70;;;13.20;99.90;;;;;;5072518;28;20205;-62
2021/10/06 05:41:56;;;;;;;1.47;0.73;;;13.30;99.90;;;;;;5072707;28;20208;-63
2021/10/06 05:44:23;;;;;;;4.20;1.40;;;13.20;99.90;;;;;;5072210;28;20212;-62
2021/10/06 05:46:50;;;;;;;2.60;0.77;;;13.30;99.90;;;;;;5072138;28;20216;-62
2021/10/06 05:49:16;;;;;;;3.70;0.80;;;13.30;99.90;;;;;;5072118;28;20224;-63
2021/10/06 05:51:43;;;;;;;1.90;0.70;;;13.30;99.90;;;;;;5072226;28;20233;-62
2021/10/06 05:54:10;;;;;;;1.33;0.87;;;13.40;99.90;;;;;;5072016;28;20626;-63
2021/10/06 05:56:39;;;;;;;2.03;0.77;;;13.50;99.90;;;;;;5072157;28;20239;-63
2021/10/06 05:59:08;;;;;;;3.20;1.13;;;13.50;99.90;;;;;;5071701;28;20225;-62
2021/10/06 06:01:35;;;;;;;6.43;1.37;;;13.50;99.90;;;;;;5071927;28;20209;-62
2021/10/06 06:04:02;;;;;;;2.93;0.93;;;13.60;99.90;;;;;;5071883;28;20208;-62
2021/10/06 06:06:28;;;;;;;3.23;0.63;;;13.70;99.90;;;;;;5071861;28;20618;-62
2021/10/06 06:08:55;;;;;;;2.80;1.00;;;13.70;99.90;;;;;;5071907;28;20430;-62
2021/10/06 06:11:22;;;;;;;4.20;1.10;;;13.70;99.90;;;;;;5071974;28;20291;-63
2021/10/06 06:13:50;;;;;;;2.67;0.80;;;13.70;99.90;;;;;;5071783;28;20261;-63
2021/10/06 06:16:17;;;;;;;2.53;0.80;;;13.70;99.90;;;;;;5071304;28;20232;-62
2021/10/06 06:18:45;;;;;;;2.63;1.07;;;13.60;99.90;;;;;;5071270;28;20229;-62
2021/10/06 06:21:12;;;;;;;1.37;0.73;;;13.60;99.90;;;;;;5071788;28;20204;-63
2021/10/06 06:23:39;;;;;;;1.73;0.60;;;13.50;99.90;;;;;;5071412;28;20201;-62
2021/10/06 06:26:06;;;;;;;3.63;1.47;;;13.40;99.90;;;;;;5071904;28;20205;-62
2021/10/06 06:28:32;;;;;;;3.97;0.80;;;13.40;99.90;;;;;;5107306;22;20228;-61
2021/10/06 06:31:00;;;;;;;3.20;1.10;;;13.40;99.90;;;;;;5092225;28;20208;-60
2021/10/06 06:33:27;;;;;;;3.80;1.00;;;13.40;99.90;;;;;;5091293;28;20743;-59
2021/10/06 06:35:53;;;;;;;0.73;0.57;;;13.40;99.90;;;;;;5092635;28;20297;-60
2021/10/06 06:38:20;;;;;;;2.20;0.77;;;13.50;99.90;;;;;;5092047;28;20342;-60
2021/10/06 06:40:47;;;;;;;2.70;0.90;;;13.50;99.90;;;;;;5092467;28;20216;-60
2021/10/06 06:43:14;;;;;;;3.20;0.80;;;13.40;99.90;;;;;;5092399;28;20208;-60
2021/10/06 06:45:40;;;;;;;1.13;0.80;;;13.30;99.90;;;;;;5091902;28;20227;-60
2021/10/06 06:48:08;;;;;;;1.77;0.80;;;13.30;99.90;;;;;;5091908;28;20224;-60
2021/10/06 06:50:35;;;;;;;3.30;1.10;;;13.50;99.90;;;;;;5092201;28;20736;-61
2021/10/06 06:53:02;;;;;;;3.77;1.00;;;14.20;99.90;;;;;;5092121;28;20204;-61
2021/10/06 06:55:29;;;;;;;2.80;1.07;;;14.80;99.90;;;;;;5091633;28;20212;-61
2021/10/06 06:57:55;;;;;;;1.90;1.13;;;15.70;99.90;;;;;;5091709;28;20726;-61
2021/10/06 07:00:23;;;;;;;0.73;0.53;;;16.20;99.90;;;;;;5091655;28;20262;-61
2021/10/06 07:02:49;;;;;;;3.27;0.83;;;16.30;99.90;;;;;;5092189;28;20208;-61
2021/10/06 07:05:18;;;;;;;3.13;1.20;;;16.10;99.90;;;;;;5091693;28;20206;-61
2021/10/06 07:07:47;;;;;;;3.07;1.73;;;16.00;99.90;;;;;;5091606;28;20224;-61
2021/10/06 07:10:14;;;;;;;3.67;1.60;;;15.80;99.90;;;;;;5091475;28;20291;-61
2021/10/06 07:12:41;;;;;;;2.83;1.40;;;15.60;99.90;;;;;;5091473;28;20234;-61
2021/10/06 07:15:08;;;;;;;3.97;1.50;;;15.50;99.90;;;;;;5091255;28;20212;-61
2021/10/06 07:17:35;;;;;;;3.83;0.97;;;15.40;99.90;;;;;;5091274;28;20659;-61
2021/10/06 07:20:02;;;;;;;2.23;0.90;;;15.20;99.90;;;;;;5091454;28;20268;-61
2021/10/06 07:22:30;;;;;;;2.97;0.90;;;15.20;99.90;;;;;;5091315;28;20218;-61
2021/10/06 07:24:57;;;;;;;2.77;0.80;;;15.20;99.90;;;;;;5090894;28;20215;-61
2021/10/06 07:27:24;;;;;;;3.60;1.47;;;15.10;99.90;;;;;;5091067;28;20211;-60
2021/10/06 07:29:51;;;;;;;3.70;1.10;;;15.10;99.90;;;;;;5091094;28;20216;-61
2021/10/06 07:32:17;;;;;;;3.47;1.30;;;15.10;99.90;;;;;;5091241;28;20204;-61
2021/10/06 07:34:44;;;;;;;2.63;1.50;;;15.20;99.90;;;;;;5090880;28;20204;-61
2021/10/06 07:37:11;;;;;;;4.40;1.10;;;15.20;99.90;;;;;;5091104;28;20232;-62
2021/10/06 07:39:39;;;;;;;3.20;1.23;;;15.30;99.90;;;;;;5090835;28;20212;-61
2021/10/06 07:42:06;;;;;;;4.77;1.40;;;15.40;99.90;;;;;;5091345;28;20532;-61
2021/10/06 07:44:33;;;;;;;3.17;1.10;;;15.50;99.90;;;;;;5092004;28;20212;-61
2021/10/06 07:47:00;;;;;;;3.87;1.77;;;15.70;99.90;;;;;;5095283;28;20208;-61
2021/10/06 07:49:27;;;;;;;2.80;1.43;;;15.70;99.90;;;;;;5095113;28;20711;-61
2021/10/06 07:51:54;;;;;;;2.60;1.00;;;15.90;99.90;;;;;;5095406;28;20204;-61
2021/10/06 07:54:20;;;;;;;2.47;0.90;;;16.00;99.90;;;;;;5095054;28;20200;-62
2021/10/06 07:56:48;;;;;;;3.97;0.90;;;16.20;99.90;;;;;;5094848;28;20284;-60
2021/10/06 07:59:15;;;;;;;4.03;1.43;;;16.40;99.90;;;;;;5094512;28;20653;-60
2021/10/06 08:01:43;;;;;;;2.97;1.10;;;16.60;99.90;;;;;;5094520;28;20579;-60
2021/10/06 08:04:10;;;;;;;3.50;1.10;;;16.60;99.90;;;;;;5094989;28;20207;-60
2021/10/06 08:06:36;;;;;;;4.33;0.90;;;16.80;99.90;;;;;;5094949;28;20253;-65
2021/10/06 08:09:05;;;;;;;3.17;1.07;;;16.90;99.90;;;;;;5094802;28;20220;-65
2021/10/06 08:11:32;;;;;;;4.40;1.10;;;17.10;99.90;;;;;;5095595;28;20299;-66
2021/10/06 08:14:00;;;;;;;3.77;0.90;;;17.30;99.90;;;;;;5095111;28;20216;-68
2021/10/06 08:16:26;;;;;;;3.00;0.87;;;17.30;99.90;;;;;;5095353;28;20273;-66
2021/10/06 08:18:53;;;;;;;5.07;1.38;;;17.40;99.90;;;;;;5094846;28;20224;-66
2021/10/06 08:21:20;;;;;;;3.97;1.30;;;17.40;99.90;;;;;;5094836;28;20617;-66
2021/10/06 08:23:47;;;;;;;5.17;1.27;;;17.50;99.90;;;;;;5094306;28;20244;-66
2021/10/06 08:26:13;;;;;;;4.05;1.38;;;17.60;99.90;;;;;;5095194;28;20205;-66
2021/10/06 08:28:40;;;;;;;4.83;2.23;;;17.70;99.90;;;;;;5094389;28;20734;-66
2021/10/06 08:31:08;;;;;;;2.23;0.80;;;17.90;99.90;;;;;;5095113;28;20632;-67
2021/10/06 08:33:35;;;;;;;3.65;1.27;;;18.00;99.90;;;;;;5094127;28;20215;-66
2021/10/06 08:36:02;;;;;;;4.95;1.38;;;18.10;99.90;;;;;;5094269;28;20228;-66
2021/10/06 08:38:28;;;;;;;5.57;1.48;;;18.20;99.90;;;;;;5094840;28;20731;-66
2021/10/06 08:40:55;;;;;;;2.40;1.00;;;18.20;99.90;;;;;;5094951;28;20208;-67
2021/10/06 08:43:22;;;;;;;5.00;0.88;;;18.30;99.90;;;;;;5098244;28;20257;-67
2021/10/06 08:45:48;;;;;;;3.72;1.35;;;18.30;99.90;;;;;;5094326;28;20208;-67
2021/10/06 08:48:16;;;;;;;3.78;1.75;;;18.20;99.90;;;;;;5094042;28;20228;-67
2021/10/06 08:50:43;;;;;;;3.40;1.63;;;18.00;99.90;;;;;;5094146;28;20208;-67
2021/10/06 08:53:10;;;;;;;1.95;1.17;;;17.80;99.90;;;;;;5093777;28;20250;-67
2021/10/06 08:55:37;;;;;;;6.13;1.10;;;17.60;99.90;;;;;;5093311;28;20211;-66
2021/10/06 08:58:06;;;;;;;4.70;1.40;;;17.40;99.90;;;;;;5093450;28;20228;-66
2021/10/06 09:00:51;;;;;;;4.53;1.13;;;17.20;99.90;;;;;;5093546;28;20250;-67
2021/10/06 09:03:25;;;;;;;3.63;1.40;;;16.90;99.90;;;;;;5093484;28;20236;-67
2021/10/06 09:06:01;;;;;;;2.03;1.15;;;16.80;99.90;;;;;;5093601;28;20239;-67
2021/10/06 09:08:29;;;;;;;7.53;1.30;;;16.60;99.90;;;;;;5093734;28;20231;-67
2021/10/06 09:10:56;;;;;;;4.00;1.40;;;16.50;99.90;;;;;;5093324;28;20204;-67
2021/10/06 09:13:26;;;;;;;6.03;1.27;;;16.40;99.90;;;;;;5093505;28;20204;-66
2021/10/06 09:15:53;;;;;;;6.37;1.30;;;16.30;99.90;;;;;;5095608;28;20238;-67
2021/10/06 09:18:24;;;;;;;2.80;1.40;;;16.40;99.90;;;;;;5095488;28;20598;-66
2021/10/06 09:20:52;;;;;;;4.27;1.30;;;16.50;99.90;;;;;;5096761;28;20215;-67
2021/10/06 09:23:21;;;;;;;5.40;1.67;;;16.60;99.90;;;;;;5098706;28;20592;-66
2021/10/06 09:25:50;;;;;;;4.50;1.40;;;16.90;99.90;;;;;;5097978;28;20287;-64
2021/10/06 09:28:26;;;;;;;4.93;1.20;;;17.10;99.90;;;;;;5096853;28;20715;-65
2021/10/06 09:30:58;;;;;;;3.77;1.00;;;17.40;99.90;;;;;;5095680;28;20204;-65
2021/10/06 09:33:37;;;;;;;4.77;1.30;;;17.50;99.90;;;;;;5097086;28;20619;-66
2021/10/06 09:36:13;;;;;;;5.83;1.43;;;17.70;99.90;;;;;;5096310;28;20659;-66
2021/10/06 09:38:48;;;;;;;4.32;1.45;;;17.90;99.90;;;;;;5095762;28;20228;-66
2021/10/06 09:41:35;;;;;;;5.68;1.50;;;18.00;99.90;;;;;;5096627;28;20208;-64
2021/10/06 09:44:06;;;;;;;3.03;1.27;;;18.20;99.90;;;;;;5096463;28;20292;-66
2021/10/06 09:46:52;;;;;;;6.97;1.63;;;18.30;99.90;;;;;;5097601;28;20211;-65
2021/10/06 09:49:24;;;;;;;7.38;1.33;;;18.40;99.90;;;;;;5097639;28;20239;-64
2021/10/06 09:51:52;;;;;;;5.97;2.83;;;18.70;99.90;;;;;;5097106;28;20208;-66
2021/10/06 09:54:19;;;;;;;6.68;1.40;;;19.00;99.90;;;;;;5094695;28;20208;-65
2021/10/06 09:56:48;;;;;;;3.88;1.55;;;19.20;99.90;;;;;;5094893;28;20239;-65
2021/10/06 09:59:16;;;;;;;4.68;1.42;;;19.30;99.90;;;;;;5094313;28;20715;-64
2021/10/06 10:01:44;;;;;;;3.05;1.05;;;19.40;99.90;;;;;;5094484;28;20203;-65
2021/10/06 10:04:12;;;;;;;6.25;1.17;;;19.60;99.90;;;;;;5094600;28;20700;-66
2021/10/06 10:06:40;;;;;;;3.25;1.02;;;19.70;99.90;;;;;;5093822;28;20687;-64
2021/10/06 10:09:09;;;;;;;3.92;1.02;;;19.80;99.90;;;;;;5092958;28;20228;-64
2021/10/06 10:11:38;;;;;;;5.57;1.45;;;19.70;99.90;;;;;;5093602;28;20295;-64
2021/10/06 10:14:07;;;;;;;4.45;1.23;;;19.50;99.90;;;;;;5093764;28;20208;-66
2021/10/06 10:16:36;;;;;;;3.10;1.05;;;19.30;99.90;;;;;;5093950;28;20231;-66
2021/10/06 10:19:06;;;;;;;4.18;1.10;;;19.10;99.90;;;;;;5094978;28;20251;-63
2021/10/06 10:21:33;;;;;;;3.03;1.13;;;18.70;99.90;;;;;;5095429;28;20209;-64
2021/10/06 10:24:10;;;;;;;5.70;1.48;;;18.50;99.90;;;;;;5094006;28;20222;-65
2021/10/06 10:26:36;;;;;;;5.18;1.67;;;18.30;99.90;;;;;;5094930;28;20226;-65
2021/10/06 10:29:36;;;;;;;5.30;1.35;;;18.20;99.90;;;;;;5094197;28;20258;-64
2021/10/06 10:32:06;;;;;;;6.97;1.83;;;18.30;99.90;;;;;;5094586;28;20215;-64
2021/10/06 10:35:05;;;;;;;3.40;1.67;;;18.20;99.90;;;;;;5095469;28;20264;-63
2021/10/06 10:38:13;;;;;;;4.95;1.08;;;18.10;99.90;;;;;;5094479;28;20228;-66
2021/10/06 10:40:49;;;;;;;5.68;1.30;;;18.00;99.90;;;;;;5094938;28;20239;-65
2021/10/06 10:43:18;;;;;;;3.55;1.25;;;17.70;99.90;;;;;;5095073;28;20208;-64
2021/10/06 10:45:51;;;;;;;6.50;1.57;;;17.30;99.90;;;;;;5096941;28;20295;-65
2021/10/06 10:48:21;;;;;;;4.97;1.30;;;16.70;99.90;;;;;;5098169;28;20667;-64
2021/10/06 10:51:11;;;;;;;7.40;1.50;;;16.20;99.90;;;;;;5098011;28;20668;-65
2021/10/06 10:53:59;;;;;;;2.93;1.10;;;16.30;99.90;;;;;;5097709;28;20746;-66
2021/10/06 10:56:42;;;;;;;3.20;1.20;;;16.70;99.90;;;;;;5096130;28;20204;-65
2021/10/06 10:59:10;;;;;;;5.80;1.43;;;17.20;99.90;;;;;;5094855;28;20293;-64
2021/10/06 11:01:45;;;;;;;4.23;1.53;;;17.80;99.90;;;;;;5094351;28;20208;-66
2021/10/06 11:04:15;;;;;;;5.35;2.00;;;18.30;99.90;;;;;;5091039;28;20216;-65
2021/10/06 11:06:43;;;;;;;1.55;0.75;;;18.70;99.90;;;;;;5092528;28;20200;-66
2021/10/06 11:09:38;;;;;;;4.30;1.15;;;18.90;99.90;;;;;;5091260;28;20578;-66
2021/10/06 11:12:41;;;;;;;3.90;1.15;;;18.80;99.90;;;;;;5091426;28;20204;-65
2021/10/06 11:15:33;;;;;;;3.22;1.17;;;18.90;99.90;;;;;;5091980;28;20211;-66
2021/10/06 11:18:38;;;;;;;5.30;1.30;;;19.30;99.90;;;;;;5091725;28;20709;-66
2021/10/06 11:21:07;;;;;;;4.93;1.48;;;19.50;99.90;;;;;;5098730;28;20227;-66
2021/10/06 11:23:45;;;;;;;5.90;1.00;;;19.40;99.90;;;;;;5098280;28;20234;-66
2021/10/06 11:26:14;;;;;;;3.90;1.67;;;19.30;99.90;;;;;;5098173;28;20204;-67
2021/10/06 11:28:44;;;;;;;4.82;1.05;;;19.30;99.90;;;;;;5096720;28;20277;-71
2021/10/06 11:31:13;;;;;;;2.60;0.93;;;19.20;99.90;;;;;;5098538;28;20278;-68
2021/10/06 11:33:40;;;;;;;2.63;0.93;;;19.20;99.90;;;;;;5097557;28;20203;-69
2021/10/06 11:36:16;;;;;;;6.57;1.50;;;19.10;99.90;;;;;;5098046;28;20211;-69
2021/10/06 11:38:46;;;;;;;5.32;1.60;;;19.00;99.90;;;;;;5097617;28;20227;-68
2021/10/06 11:41:13;;;;;;;5.82;1.30;;;19.10;99.90;;;;;;5097992;28;20227;-67
2021/10/06 11:43:44;;;;;;;2.90;1.05;;;19.00;99.90;;;;;;5098192;28;20219;-69
2021/10/06 11:46:17;;;;;;;6.27;1.73;;;18.90;99.90;;;;;;5097949;28;20219;-69
2021/10/06 11:48:44;;;;;;;4.45;1.42;;;18.80;99.90;;;;;;5097881;28;20323;-69
2021/10/06 11:51:11;;;;;;;7.13;1.15;;;18.60;99.90;;;;;;5097680;28;20568;-67
2021/10/06 11:53:43;;;;;;;4.45;1.40;;;18.30;99.90;;;;;;5097614;28;20211;-67
2021/10/06 11:56:22;;;;;;;3.55;1.10;;;18.00;99.90;;;;;;5097290;28;20756;-67
2021/10/06 11:58:51;;;;;;;4.60;1.13;;;17.80;99.90;;;;;;5097298;28;20373;-66
2021/10/06 12:01:18;;;;;;;2.15;1.17;;;17.70;99.90;;;;;;5097748;28;20211;-66
2021/10/06 12:03:45;;;;;;;2.67;1.13;;;17.80;99.90;;;;;;5098099;28;20200;-66
2021/10/06 12:06:14;;;;;;;3.10;1.15;;;17.90;99.90;;;;;;5097786;28;20586;-66
2021/10/06 12:08:40;;;;;;;2.67;1.30;;;18.00;99.90;;;;;;5097045;28;20220;-66
2021/10/06 12:11:08;;;;;;;1.83;0.63;;;18.00;99.90;;;;;;5097866;28;20212;-68
2021/10/06 12:13:38;;;;;;;2.00;0.80;;;18.00;99.90;;;;;;5097663;28;20201;-69
2021/10/06 12:16:24;;;;;;;2.77;0.80;;;17.90;99.90;;;;;;5097871;28;20286;-69
2021/10/06 12:18:56;;;;;;;14.50;12.98;;;17.80;99.90;;;;;;5097230;28;20267;-66
2021/10/06 12:21:23;;;;;;;13.52;9.98;;;18.00;99.90;;;;;;5098075;28;20211;-70
2021/10/06 12:23:50;;;;;;;2.60;1.02;;;18.20;99.90;;;;;;5098081;28;20204;-70
2021/10/06 12:26:17;;;;;;;3.10;1.20;;;18.50;99.90;;;;;;5097782;28;20208;-64
2021/10/06 12:28:57;;;;;;;2.30;0.93;;;18.40;99.90;;;;;;5098332;28;20224;-66
2021/10/06 12:31:28;;;;;;;3.35;1.13;;;18.10;99.90;;;;;;5094787;28;20212;-66
2021/10/06 12:34:13;;;;;;;2.92;1.00;;;18.00;99.90;;;;;;5095313;28;20204;-69
2021/10/06 12:36:47;;;;;;;3.72;1.20;;;18.20;99.90;;;;;;5095294;28;20214;-69
2021/10/06 12:39:17;;;;;;;2.08;0.93;;;18.30;99.90;;;;;;5094717;28;20312;-67
2021/10/06 12:41:51;;;;;;;2.67;0.70;;;18.40;99.90;;;;;;5095204;28;20212;-63
2021/10/06 12:44:24;;;;;;;3.00;0.90;;;18.50;99.90;;;;;;5094942;28;20221;-66
2021/10/06 12:46:54;;;;;;;3.53;1.27;;;18.60;99.90;;;;;;5094442;28;20215;-67
2021/10/06 12:49:22;;;;;;;1.92;0.68;;;18.70;99.90;;;;;;5093856;28;20228;-67
2021/10/06 12:51:58;;;;;;;4.05;1.25;;;18.50;99.90;;;;;;5094173;28;20208;-68
2021/10/06 12:54:27;;;;;;;3.40;0.95;;;18.40;99.90;;;;;;5093849;28;20211;-67